createdAt,value
2018-05-07T00:02:22.501Z,6.53
2018-05-07T00:04:50.117Z,6.07
2018-05-07T00:07:16.894Z,6.70
2018-05-07T00:09:43.736Z,6.70
2018-05-07T00:14:43.584Z,6.13
2018-05-07T00:17:10.359Z,6.20
2018-05-07T00:19:37.099Z,6.00
2018-05-07T00:22:04.087Z,5.77
2018-05-07T00:24:30.856Z,6.77
2018-05-07T00:26:58.223Z,7.50
2018-05-07T00:29:25.012Z,6.77
2018-05-07T00:31:52.113Z,6.50
2018-05-07T00:34:18.849Z,7.53
2018-05-07T00:36:45.614Z,7.33
2018-05-07T00:39:12.406Z,7.37
2018-05-07T00:41:39.156Z,7.43
2018-05-07T00:44:05.918Z,6.73
2018-05-07T00:46:32.678Z,5.87
2018-05-07T00:48:59.429Z,5.50
2018-05-07T00:51:26.223Z,6.70
2018-05-07T00:53:52.988Z,6.03
2018-05-07T00:56:19.721Z,6.30
2018-05-07T00:58:46.484Z,6.33
2018-05-07T01:01:13.234Z,6.27
2018-05-07T01:03:40.020Z,6.13
2018-05-07T01:06:06.787Z,6.07
2018-05-07T01:08:33.564Z,5.40
2018-05-07T01:11:00.344Z,5.70
2018-05-07T01:13:27.101Z,6.43
2018-05-07T01:15:53.882Z,6.53
2018-05-07T01:18:20.652Z,5.03
2018-05-07T01:20:47.416Z,5.77
2018-05-07T01:23:14.547Z,6.40
2018-05-07T01:25:41.343Z,5.40
2018-05-07T01:28:08.143Z,5.57
2018-05-07T01:30:35.039Z,6.50
2018-05-07T01:33:01.826Z,6.00
2018-05-07T01:35:28.587Z,5.10
2018-05-07T01:37:55.324Z,5.47
2018-05-07T01:40:22.128Z,6.83
2018-05-07T01:42:48.869Z,5.50
2018-05-07T01:45:15.609Z,5.10
2018-05-07T01:47:42.351Z,5.60
2018-05-07T01:50:09.110Z,5.90
2018-05-07T01:52:36.058Z,5.77
2018-05-07T01:55:02.839Z,6.10
2018-05-07T01:57:29.591Z,5.70
2018-05-07T01:59:56.336Z,5.93
2018-05-07T02:02:23.105Z,6.00
2018-05-07T02:04:49.897Z,5.77
2018-05-07T02:07:16.684Z,7.50
2018-05-07T02:09:43.450Z,5.60
2018-05-07T02:12:10.236Z,5.20
2018-05-07T02:14:36.992Z,5.70
2018-05-07T02:17:03.772Z,6.00
2018-05-07T02:19:30.560Z,6.10
2018-05-07T02:21:57.310Z,5.37
2018-05-07T02:24:24.049Z,5.07
2018-05-07T02:26:50.842Z,5.80
2018-05-07T02:29:17.609Z,4.40
2018-05-07T02:31:44.371Z,6.10
2018-05-07T02:34:11.114Z,5.07
2018-05-07T02:36:38.103Z,5.50
2018-05-07T02:39:04.870Z,5.23
2018-05-07T02:41:31.685Z,5.70
2018-05-07T02:43:58.992Z,5.13
2018-05-07T02:46:26.258Z,5.10
2018-05-07T02:48:53.036Z,5.00
2018-05-07T02:51:19.798Z,5.53
2018-05-07T02:53:46.637Z,5.10
2018-05-07T02:56:13.420Z,5.17
2018-05-07T02:58:40.215Z,5.50
2018-05-07T03:01:07.463Z,4.60
2018-05-07T03:03:35.211Z,4.93
2018-05-07T03:06:02.010Z,5.03
2018-05-07T03:08:28.785Z,5.50
2018-05-07T03:10:55.549Z,5.00
2018-05-07T03:13:22.285Z,4.27
2018-05-07T03:15:49.579Z,4.33
2018-05-07T03:18:17.109Z,5.70
2018-05-07T03:20:43.870Z,4.80
2018-05-07T03:23:10.629Z,5.20
2018-05-07T03:25:37.394Z,4.77
2018-05-07T03:28:04.162Z,5.00
2018-05-07T03:30:30.928Z,5.33
2018-05-07T03:32:57.697Z,4.60
2018-05-07T03:35:24.460Z,4.87
2018-05-07T03:37:51.214Z,5.00
2018-05-07T03:40:17.957Z,4.77
2018-05-07T03:42:44.755Z,4.70
2018-05-07T03:45:11.515Z,6.50
2018-05-07T03:47:38.284Z,4.27
2018-05-07T03:50:05.100Z,5.73
2018-05-07T03:52:32.482Z,5.10
2018-05-07T03:54:59.276Z,5.73
2018-05-07T03:57:26.653Z,4.60
2018-05-07T03:59:54.213Z,6.27
2018-05-07T04:02:21.095Z,5.27
2018-05-07T04:04:47.804Z,5.20
2018-05-07T04:07:14.623Z,4.23
2018-05-07T04:09:41.338Z,5.00
2018-05-07T04:12:08.100Z,4.97
2018-05-07T04:14:34.840Z,4.97
2018-05-07T04:17:07.372Z,4.90
2018-05-07T04:19:40.052Z,5.20
2018-05-07T04:22:12.577Z,4.60
2018-05-07T04:24:39.317Z,4.70
2018-05-07T04:27:06.096Z,4.40
2018-05-07T04:29:32.838Z,4.50
2018-05-07T04:32:00.396Z,4.50
2018-05-07T04:34:27.195Z,4.40
2018-05-07T04:36:53.983Z,5.13
2018-05-07T04:39:20.753Z,5.80
2018-05-07T04:41:47.495Z,4.60
2018-05-07T04:44:14.233Z,5.00
2018-05-07T04:46:41.027Z,5.67
2018-05-07T04:49:07.812Z,5.83
2018-05-07T04:51:34.579Z,4.40
2018-05-07T04:54:01.317Z,4.63
2018-05-07T04:56:28.056Z,4.83
2018-05-07T04:58:54.861Z,4.83
2018-05-07T05:01:21.918Z,6.83
2018-05-07T05:03:48.680Z,4.47
2018-05-07T05:06:15.472Z,4.57
2018-05-07T05:08:42.240Z,4.30
2018-05-07T05:11:09.032Z,4.40
2018-05-07T05:13:35.772Z,5.00
2018-05-07T05:16:02.536Z,4.77
2018-05-07T05:18:29.295Z,5.10
2018-05-07T05:20:56.069Z,4.40
2018-05-07T05:23:22.859Z,4.20
2018-05-07T05:25:49.694Z,4.87
2018-05-07T05:28:16.449Z,4.57
2018-05-07T05:30:43.209Z,5.73
2018-05-07T05:33:09.945Z,4.90
2018-05-07T05:35:36.752Z,4.63
2018-05-07T05:38:03.489Z,5.10
2018-05-07T05:40:30.253Z,5.27
2018-05-07T05:42:57.028Z,4.80
2018-05-07T05:45:23.789Z,5.30
2018-05-07T05:47:50.583Z,5.30
2018-05-07T05:50:17.400Z,5.00
2018-05-07T05:52:44.160Z,4.33
2018-05-07T05:55:11.310Z,4.50
2018-05-07T05:57:39.134Z,4.00
2018-05-07T06:00:05.928Z,4.20
2018-05-07T06:02:32.696Z,5.00
2018-05-07T06:04:59.453Z,4.47
2018-05-07T06:07:26.228Z,4.47
2018-05-07T06:09:52.984Z,5.20
2018-05-07T06:12:19.773Z,5.43
2018-05-07T06:14:46.665Z,4.37
2018-05-07T06:17:13.362Z,3.97
2018-05-07T06:19:40.120Z,5.50
2018-05-07T06:22:06.881Z,4.07
2018-05-07T06:24:33.684Z,4.50
2018-05-07T06:27:00.417Z,4.00
2018-05-07T06:29:27.170Z,4.23
2018-05-07T06:31:53.933Z,4.00
2018-05-07T06:34:20.750Z,3.23
2018-05-07T06:36:47.548Z,4.80
2018-05-07T06:39:14.317Z,3.90
2018-05-07T06:41:41.097Z,4.03
2018-05-07T06:44:07.857Z,4.67
2018-05-07T06:46:34.641Z,3.67
2018-05-07T06:49:01.517Z,4.10
2018-05-07T06:51:28.301Z,3.97
2018-05-07T06:53:55.037Z,3.87
2018-05-07T06:56:21.777Z,4.00
2018-05-07T06:58:48.516Z,3.43
2018-05-07T07:01:15.296Z,3.97
2018-05-07T07:03:42.119Z,4.10
2018-05-07T07:06:08.860Z,3.90
2018-05-07T07:08:35.734Z,3.87
2018-05-07T07:11:02.419Z,4.10
2018-05-07T07:13:29.201Z,3.80
2018-05-07T07:15:55.941Z,3.93
2018-05-07T07:18:23.702Z,3.57
2018-05-07T07:20:50.467Z,4.17
2018-05-07T07:23:17.220Z,3.80
2018-05-07T07:25:44.032Z,4.87
2018-05-07T07:28:10.855Z,5.27
2018-05-07T07:30:37.588Z,4.57
2018-05-07T07:33:04.329Z,4.90
2018-05-07T07:35:31.071Z,6.00
2018-05-07T07:37:57.977Z,5.53
2018-05-07T07:40:24.756Z,5.40
2018-05-07T07:42:51.520Z,3.90
2018-05-07T07:45:18.287Z,4.20
2018-05-07T07:47:45.059Z,4.30
2018-05-07T07:50:11.852Z,4.30
2018-05-07T07:52:38.610Z,4.03
2018-05-07T07:55:06.144Z,3.63
2018-05-07T07:57:32.911Z,3.47
2018-05-07T07:59:59.677Z,3.80
2018-05-07T08:02:26.480Z,3.40
2018-05-07T08:04:53.231Z,3.27
2018-05-07T08:07:20.026Z,2.93
2018-05-07T08:09:47.369Z,3.20
2018-05-07T08:12:14.204Z,3.50
2018-05-07T08:14:40.966Z,2.63
2018-05-07T08:17:07.735Z,3.10
2018-05-07T08:19:34.501Z,3.03
2018-05-07T08:22:01.253Z,3.00
2018-05-07T08:24:28.964Z,3.50
2018-05-07T08:26:56.082Z,3.23
2018-05-07T08:29:22.856Z,3.33
2018-05-07T08:31:49.605Z,3.17
2018-05-07T08:34:16.376Z,2.90
2018-05-07T08:36:43.171Z,2.70
2018-05-07T08:39:09.984Z,3.47
2018-05-07T08:41:36.726Z,3.70
2018-05-07T08:44:03.519Z,3.10
2018-05-07T08:46:30.261Z,2.70
2018-05-07T08:48:57.104Z,2.83
2018-05-07T08:51:23.883Z,3.23
2018-05-07T08:53:50.635Z,3.47
2018-05-07T08:56:17.464Z,3.43
2018-05-07T08:58:44.221Z,3.30
2018-05-07T09:01:10.993Z,3.03
2018-05-07T09:03:38.538Z,3.60
2018-05-07T09:06:05.356Z,2.57
2018-05-07T09:08:32.105Z,2.93
2018-05-07T09:10:58.854Z,2.73
2018-05-07T09:13:25.588Z,3.07
2018-05-07T09:15:52.389Z,4.17
2018-05-07T09:18:19.153Z,2.87
2018-05-07T09:20:46.017Z,2.83
2018-05-07T09:23:12.786Z,2.50
2018-05-07T09:25:39.550Z,2.90
2018-05-07T09:28:06.375Z,2.30
2018-05-07T09:30:33.148Z,2.47
2018-05-07T09:32:59.901Z,2.40
2018-05-07T09:35:26.755Z,2.40
2018-05-07T09:37:53.518Z,2.87
2018-05-07T09:40:20.858Z,2.70
2018-05-07T09:42:47.603Z,2.70
2018-05-07T09:45:14.429Z,2.77
2018-05-07T09:47:41.168Z,2.47
2018-05-07T09:50:07.970Z,2.70
2018-05-07T09:52:35.342Z,2.70
2018-05-07T09:55:02.120Z,3.70
2018-05-07T09:57:28.869Z,2.83
2018-05-07T09:59:55.641Z,3.13
2018-05-07T10:02:23.043Z,2.70
2018-05-07T10:04:49.829Z,2.73
2018-05-07T10:07:16.687Z,2.67
2018-05-07T10:09:43.448Z,2.90
2018-05-07T10:12:10.219Z,2.33
2018-05-07T10:14:36.965Z,2.60
2018-05-07T10:17:03.835Z,2.80
2018-05-07T10:19:30.548Z,2.27
2018-05-07T10:21:57.325Z,2.47
2018-05-07T10:24:24.399Z,2.30
2018-05-07T10:26:51.163Z,2.30
2018-05-07T10:29:18.194Z,2.27
2018-05-07T10:31:45.562Z,1.87
2018-05-07T10:34:12.314Z,2.07
2018-05-07T10:36:39.098Z,2.47
2018-05-07T10:39:05.864Z,2.40
2018-05-07T10:41:32.701Z,2.30
2018-05-07T10:43:59.448Z,2.00
2018-05-07T10:46:26.184Z,1.93
2018-05-07T10:48:52.968Z,2.60
2018-05-07T10:51:19.712Z,2.60
2018-05-07T10:53:46.501Z,2.57
2018-05-07T10:56:13.334Z,2.83
2018-05-07T10:58:40.030Z,2.47
2018-05-07T11:01:06.789Z,2.43
2018-05-07T11:03:33.584Z,2.93
2018-05-07T11:06:00.586Z,2.53
2018-05-07T11:08:28.028Z,2.57
2018-05-07T11:10:54.818Z,2.60
2018-05-07T11:13:21.594Z,3.40
2018-05-07T11:15:48.376Z,3.20
2018-05-07T11:18:15.195Z,3.20
2018-05-07T11:20:42.001Z,3.10
2018-05-07T11:23:08.800Z,3.13
2018-05-07T11:25:36.053Z,2.63
2018-05-07T11:28:02.833Z,2.70
2018-05-07T11:30:29.644Z,3.23
2018-05-07T11:32:56.433Z,2.70
2018-05-07T11:35:23.196Z,3.37
2018-05-07T11:37:49.963Z,2.90
2018-05-07T11:40:16.763Z,3.07
2018-05-07T11:42:43.545Z,3.00
2018-05-07T11:45:10.335Z,2.90
2018-05-07T11:47:37.118Z,2.30
2018-05-07T11:50:03.873Z,3.57
2018-05-07T11:52:30.640Z,3.70
2018-05-07T11:54:57.439Z,3.30
2018-05-07T11:57:24.211Z,5.03
2018-05-07T11:59:50.957Z,3.90
2018-05-07T12:02:18.534Z,3.60
2018-05-07T12:04:45.294Z,3.90
2018-05-07T12:07:12.716Z,3.57
2018-05-07T12:09:39.478Z,3.60
2018-05-07T12:12:06.228Z,4.30
2018-05-07T12:14:32.977Z,4.10
2018-05-07T12:16:59.746Z,3.60
2018-05-07T12:19:26.524Z,3.60
2018-05-07T12:21:53.332Z,3.90
2018-05-07T12:24:20.074Z,4.00
2018-05-07T12:26:46.844Z,4.23
2018-05-07T12:29:13.635Z,5.43
2018-05-07T12:31:40.467Z,5.60
2018-05-07T12:34:07.199Z,5.00
2018-05-07T12:36:33.936Z,4.67
2018-05-07T12:39:00.700Z,4.97
2018-05-07T12:41:27.498Z,4.67
2018-05-07T12:43:54.280Z,5.37
2018-05-07T12:46:21.080Z,4.83
2018-05-07T12:48:47.844Z,4.87
2018-05-07T12:51:14.620Z,5.03
2018-05-07T12:53:41.361Z,4.53
2018-05-07T12:56:08.156Z,4.50
2018-05-07T12:58:34.905Z,4.40
2018-05-07T13:01:01.645Z,4.57
2018-05-07T13:03:28.413Z,4.30
2018-05-07T13:05:55.341Z,4.50
2018-05-07T13:08:22.125Z,4.60
2018-05-07T13:10:48.880Z,5.03
2018-05-07T13:13:15.648Z,4.33
2018-05-07T13:15:42.721Z,3.80
2018-05-07T13:18:09.466Z,3.70
2018-05-07T13:20:36.265Z,3.90
2018-05-07T13:23:03.029Z,4.07
2018-05-07T13:25:30.421Z,3.80
2018-05-07T13:27:57.212Z,3.27
2018-05-07T13:30:24.018Z,3.40
2018-05-07T13:32:50.918Z,3.37
2018-05-07T13:35:17.625Z,3.60
2018-05-07T13:37:44.615Z,3.10
2018-05-07T13:40:11.354Z,4.00
2018-05-07T13:42:38.129Z,3.73
2018-05-07T13:45:04.961Z,3.47
2018-05-07T13:47:31.742Z,3.30
2018-05-07T13:49:58.480Z,3.87
2018-05-07T13:52:25.226Z,4.03
2018-05-07T13:54:51.979Z,4.57
2018-05-07T13:57:19.442Z,3.90
2018-05-07T13:59:46.212Z,3.50
2018-05-07T14:02:12.972Z,3.20
2018-05-07T14:04:39.741Z,3.90
2018-05-07T14:07:06.498Z,3.10
2018-05-07T14:09:33.324Z,3.70
2018-05-07T14:12:00.080Z,4.00
2018-05-07T14:14:26.867Z,4.13
2018-05-07T14:16:53.673Z,3.20
2018-05-07T14:19:20.432Z,3.23
2018-05-07T14:21:47.246Z,3.93
2018-05-07T14:24:14.316Z,3.97
2018-05-07T14:26:41.066Z,4.07
2018-05-07T14:29:07.825Z,4.40
2018-05-07T14:31:34.619Z,4.10
2018-05-07T14:34:01.901Z,3.90
2018-05-07T14:36:28.659Z,4.43
2018-05-07T14:38:55.447Z,4.00
2018-05-07T14:41:22.936Z,3.83
2018-05-07T14:43:49.680Z,4.17
2018-05-07T14:46:16.497Z,4.27
2018-05-07T14:48:43.246Z,3.33
2018-05-07T14:51:10.023Z,4.40
2018-05-07T14:53:36.765Z,3.70
2018-05-07T14:56:03.803Z,3.70
2018-05-07T14:58:30.608Z,3.60
2018-05-07T15:00:57.377Z,3.70
2018-05-07T15:03:24.728Z,3.73
2018-05-07T15:05:51.536Z,4.20
2018-05-07T15:08:18.299Z,3.43
2018-05-07T15:10:45.065Z,3.90
2018-05-07T15:13:11.863Z,3.20
2018-05-07T15:15:38.730Z,3.20
2018-05-07T15:18:05.466Z,4.40
2018-05-07T15:20:32.271Z,3.20
2018-05-07T15:22:59.017Z,3.50
2018-05-07T15:25:25.788Z,3.97
2018-05-07T15:27:52.567Z,3.27
2018-05-07T15:30:19.369Z,3.70
2018-05-07T15:32:46.107Z,3.90
2018-05-07T15:35:12.872Z,3.03
2018-05-07T15:37:39.631Z,3.60
2018-05-07T15:40:06.730Z,3.03
2018-05-07T15:42:33.516Z,4.10
2018-05-07T15:45:00.287Z,4.13
2018-05-07T15:47:27.038Z,4.70
2018-05-07T15:49:53.824Z,3.80
2018-05-07T15:52:20.600Z,4.30
2018-05-07T15:54:47.431Z,3.67
2018-05-07T15:57:14.205Z,3.00
2018-05-07T15:59:40.972Z,3.90
2018-05-07T16:02:07.776Z,3.87
2018-05-07T16:04:34.562Z,3.93
2018-05-07T16:07:01.340Z,4.10
2018-05-07T16:09:28.146Z,4.20
2018-05-07T16:11:54.889Z,3.57
2018-05-07T16:14:21.688Z,3.50
2018-05-07T16:16:48.484Z,4.60
2018-05-07T16:19:15.271Z,4.60
2018-05-07T16:21:42.020Z,4.50
2018-05-07T16:24:08.806Z,4.17
2018-05-07T16:26:35.639Z,4.00
2018-05-07T16:29:02.599Z,4.77
2018-05-07T16:31:29.380Z,3.60
2018-05-07T16:33:56.142Z,3.60
2018-05-07T16:36:22.911Z,3.40
2018-05-07T16:38:49.744Z,4.30
2018-05-07T16:41:17.481Z,4.27
2018-05-07T16:43:44.301Z,4.07
2018-05-07T16:46:11.066Z,4.37
2018-05-07T16:48:37.871Z,4.17
2018-05-07T16:51:04.664Z,4.20
2018-05-07T16:53:31.428Z,4.07
2018-05-07T16:55:58.180Z,3.57
2018-05-07T16:58:24.961Z,3.83
2018-05-07T17:00:51.727Z,3.60
2018-05-07T17:03:18.502Z,4.00
2018-05-07T17:05:45.303Z,3.80
2018-05-07T17:08:12.103Z,3.90
2018-05-07T17:10:38.831Z,3.90
2018-05-07T17:13:05.698Z,3.70
2018-05-07T17:15:32.450Z,3.63
2018-05-07T17:17:59.231Z,6.80
2018-05-07T17:20:26.136Z,8.93
2018-05-07T17:22:53.184Z,7.50
2018-05-07T17:25:19.965Z,7.40
2018-05-07T17:27:47.523Z,6.60
2018-05-07T17:30:14.288Z,5.30
2018-05-07T17:32:41.055Z,5.20
2018-05-07T17:35:07.809Z,3.83
2018-05-07T17:37:34.576Z,3.80
2018-05-07T17:40:01.359Z,4.27
2018-05-07T17:42:28.116Z,4.07
2018-05-07T17:44:59.093Z,4.40
2018-05-07T17:47:31.802Z,3.47
2018-05-07T17:49:58.581Z,3.67
2018-05-07T17:52:25.377Z,4.00
2018-05-07T17:54:52.116Z,4.17
2018-05-07T17:57:18.894Z,3.80
2018-05-07T17:59:45.664Z,4.10
2018-05-07T18:02:12.441Z,4.47
2018-05-07T18:04:39.251Z,4.60
2018-05-07T18:07:06.031Z,4.50
2018-05-07T18:09:33.677Z,6.57
2018-05-07T18:12:00.505Z,4.43
2018-05-07T18:14:27.257Z,3.80
2018-05-07T18:16:54.029Z,4.20
2018-05-07T18:19:21.441Z,4.30
2018-05-07T18:21:48.213Z,4.10
2018-05-07T18:24:14.975Z,3.53
2018-05-07T18:26:41.721Z,3.60
2018-05-07T18:29:08.525Z,3.33
2018-05-07T18:31:35.293Z,3.77
2018-05-07T18:34:02.049Z,3.67
2018-05-07T18:36:28.856Z,3.43
2018-05-07T18:38:56.531Z,3.87
2018-05-07T18:41:23.348Z,4.50
2018-05-07T18:43:50.091Z,4.80
2018-05-07T18:46:16.834Z,4.33
2018-05-07T18:48:43.604Z,3.83
2018-05-07T18:51:10.384Z,3.70
2018-05-07T18:53:37.244Z,3.63
2018-05-07T18:56:04.495Z,3.80
2018-05-07T18:58:31.932Z,3.77
2018-05-07T19:00:58.736Z,3.60
2018-05-07T19:03:25.493Z,3.00
2018-05-07T19:05:52.277Z,3.20
2018-05-07T19:08:19.034Z,2.70
2018-05-07T19:10:45.801Z,3.17
2018-05-07T19:13:12.800Z,3.10
2018-05-07T19:15:40.323Z,3.57
2018-05-07T19:18:07.117Z,3.30
2018-05-07T19:20:33.868Z,3.60
2018-05-07T19:23:00.633Z,2.53
2018-05-07T19:25:27.455Z,2.67
2018-05-07T19:27:54.205Z,2.90
2018-05-07T19:30:21.022Z,2.60
2018-05-07T19:32:47.770Z,3.13
2018-05-07T19:35:14.513Z,2.97
2018-05-07T19:37:41.252Z,2.93
2018-05-07T19:40:08.005Z,2.90
2018-05-07T19:42:35.120Z,3.50
2018-05-07T19:45:01.865Z,3.70
2018-05-07T19:47:28.622Z,2.47
2018-05-07T19:49:55.380Z,2.83
2018-05-07T19:52:22.141Z,2.83
2018-05-07T19:54:49.013Z,3.63
2018-05-07T19:57:16.085Z,3.30
2018-05-07T19:59:42.832Z,3.53
2018-05-07T20:02:09.573Z,3.53
2018-05-07T20:04:36.337Z,3.80
2018-05-07T20:07:03.147Z,2.50
2018-05-07T20:09:29.987Z,3.33
2018-05-07T20:11:56.740Z,2.90
2018-05-07T20:14:23.500Z,2.73
2018-05-07T20:16:50.268Z,2.40
2018-05-07T20:19:17.064Z,2.40
2018-05-07T20:21:44.157Z,2.30
2018-05-07T20:24:10.926Z,2.70
2018-05-07T20:26:37.688Z,3.10
2018-05-07T20:29:04.721Z,2.93
2018-05-07T20:31:31.489Z,2.47
2018-05-07T20:33:58.263Z,2.70
2018-05-07T20:36:25.064Z,3.07
2018-05-07T20:38:51.839Z,3.23
2018-05-07T20:41:19.603Z,2.47
2018-05-07T20:43:47.025Z,2.30
2018-05-07T20:46:13.799Z,2.97
2018-05-07T20:48:40.578Z,3.30
2018-05-07T20:51:07.333Z,3.00
2018-05-07T20:53:34.091Z,2.70
2018-05-07T20:56:00.877Z,2.73
2018-05-07T20:58:27.635Z,2.60
2018-05-07T21:00:54.405Z,2.80
2018-05-07T21:03:21.141Z,3.03
2018-05-07T21:05:47.895Z,2.70
2018-05-07T21:08:14.679Z,2.63
2018-05-07T21:10:41.451Z,3.57
2018-05-07T21:13:08.238Z,2.87
2018-05-07T21:15:35.045Z,2.80
2018-05-07T21:18:01.830Z,2.97
2018-05-07T21:20:28.954Z,3.30
2018-05-07T21:22:55.735Z,3.00
2018-05-07T21:25:22.472Z,2.87
2018-05-07T21:27:49.212Z,2.83
2018-05-07T21:30:15.952Z,3.17
2018-05-07T21:32:42.740Z,2.90
2018-05-07T21:35:09.516Z,3.50
2018-05-07T21:37:36.300Z,3.37
2018-05-07T21:40:03.077Z,3.70
2018-05-07T21:42:29.849Z,3.20
2018-05-07T21:44:56.656Z,3.40
2018-05-07T21:47:23.393Z,3.83
2018-05-07T21:49:50.782Z,3.40
2018-05-07T21:52:17.526Z,3.27
2018-05-07T21:54:44.326Z,3.00
2018-05-07T21:57:11.123Z,4.00
2018-05-07T21:59:37.907Z,3.10
2018-05-07T22:02:04.703Z,3.50
2018-05-07T22:04:31.445Z,2.83
2018-05-07T22:06:58.184Z,3.70
2018-05-07T22:09:24.981Z,3.70
2018-05-07T22:11:52.567Z,3.43
2018-05-07T22:14:19.987Z,3.30
2018-05-07T22:16:46.752Z,3.73
2018-05-07T22:19:13.524Z,4.13
2018-05-07T22:21:40.296Z,3.80
2018-05-07T22:24:07.032Z,4.03
2018-05-07T22:26:33.798Z,4.43
2018-05-07T22:29:01.285Z,4.37
2018-05-07T22:31:28.060Z,4.30
2018-05-07T22:33:54.840Z,4.00
2018-05-07T22:36:21.582Z,4.20
2018-05-07T22:38:48.352Z,3.53
2018-05-07T22:41:15.097Z,4.00
2018-05-07T22:43:41.864Z,5.40
2018-05-07T22:46:08.658Z,4.50
2018-05-07T22:48:35.433Z,4.70
2018-05-07T22:51:02.209Z,4.37
2018-05-07T22:53:29.635Z,4.80
2018-05-07T22:55:56.532Z,4.10
2018-05-07T22:58:23.312Z,4.20
2018-05-07T23:00:50.128Z,3.63
2018-05-07T23:03:16.873Z,4.00
2018-05-07T23:05:43.629Z,4.17
2018-05-07T23:08:10.382Z,3.60
2018-05-07T23:10:37.186Z,5.23
2018-05-07T23:13:03.940Z,4.20
2018-05-07T23:15:30.701Z,4.10
2018-05-07T23:17:57.466Z,5.17
2018-05-07T23:20:24.268Z,4.40
2018-05-07T23:22:51.068Z,5.00
2018-05-07T23:25:17.830Z,4.07
2018-05-07T23:27:44.573Z,3.73
2018-05-07T23:30:11.309Z,4.73
2018-05-07T23:32:40.982Z,3.37
2018-05-07T23:35:07.782Z,4.00
2018-05-07T23:37:34.552Z,4.70
2018-05-07T23:40:01.340Z,4.83
2018-05-07T23:42:28.122Z,4.20
2018-05-07T23:44:54.900Z,4.10
2018-05-07T23:47:21.691Z,3.43
2018-05-07T23:49:48.456Z,4.17
2018-05-07T23:52:15.217Z,4.80
2018-05-07T23:54:41.956Z,4.30
2018-05-07T23:57:08.721Z,4.83
2018-05-07T23:59:35.520Z,4.20
